KBNA/BNA METAR and TAF weather

Enter ICAO airport designator
Station Type Date Time Source
KBNA METAR 2021/07/30 22:53 UTC NOAA

KBNA 302253Z 32008KT 10SM FEW050 SCT180 BKN250 33/21 A2998 RMK AO2 SLP143 T03330211


Station Type Date Time Source
KBNA Decoded METAR 2021/07/30 22:53 UTC NOAA

NASHVILLE INTERNATIONAL AIRPORT, TN, United States (KBNA) 36-07N 086-41W 210M
Jul 30, 2021 - 06:53 PM EDT / 2021.07.30 2253 UTC
Wind: from the NW (320 degrees) at 9 MPH (8 KT):0
Visibility: 10 mile(s):0
Sky conditions: mostly cloudy
Temperature: 91.9 F (33.3 C)
Heat index: 97.3 F (36.3 C):1
Dew Point: 70.0 F (21.1 C)
Relative Humidity: 48%
Pressure (altimeter): 29.98 in. Hg (1015 hPa)
ob: KBNA 302253Z 32008KT 10SM FEW050 SCT180 BKN250 33/21 A2998 RMK AO2 SLP143 T03330211
cycle: 23

Station Type Date Time Source
KBNA TAF 2021/07/30 18:42 UTC NOAA

TAF KBNA 301739Z 3018/3118 28006KT P6SM FEW040 SCT200
FM302100 36008KT P6SM VCTS FEW040CB SCT200
FM310100 36007KT P6SM SCT150

Example: see airport list